Time;durP1;ratioP1;P1;durP2;ratioP2;P2;SDS_P1;SDS_P2;PMS_P1;PMS_P2;Temp;Humidity;BMP_temperature;BMP_pressure;BME280_temperature;BME280_humidity;BME280_pressure;Samples;Min_cycle;Max_cycle;Signal;HPM_P1;HPM_P2
2023/06/26 00:00:05;;;;;;;2.15;1.50;;;;;;;32.36;24.86;100874.94;4991212;28;20133;-69
2023/06/26 00:02:34;;;;;;;1.90;1.10;;;;;;;32.30;24.58;100873.50;4993671;28;20042;-69
2023/06/26 00:05:04;;;;;;;1.70;1.35;;;;;;;32.28;25.78;100867.38;4982633;28;20515;-69
2023/06/26 00:07:33;;;;;;;4.50;1.60;;;;;;;32.30;26.49;100872.66;4989791;28;20062;-69
2023/06/26 00:10:02;;;;;;;1.92;1.40;;;;;;;32.34;26.01;100871.50;4991889;28;20058;-69
2023/06/26 00:12:35;;;;;;;2.40;1.58;;;;;;;32.32;25.25;100874.28;4985646;28;20061;-69
2023/06/26 00:15:07;;;;;;;1.95;1.67;;;;;;;32.38;25.71;100865.00;4989497;28;20046;-69
2023/06/26 00:17:37;;;;;;;2.03;1.50;;;;;;;32.44;24.94;100871.81;4986303;28;20081;-68
2023/06/26 00:20:09;;;;;;;1.35;1.20;;;;;;;32.45;25.45;100862.81;4988936;28;20065;-70
2023/06/26 00:22:40;;;;;;;3.40;1.42;;;;;;;32.33;26.07;100862.59;4987418;28;20058;-69
2023/06/26 00:25:09;;;;;;;1.88;1.27;;;;;;;32.22;25.84;100872.25;4988956;28;20082;-69
2023/06/26 00:27:38;;;;;;;1.75;1.42;;;;;;;32.22;26.13;100859.72;4987911;28;20057;-69
2023/06/26 00:30:12;;;;;;;2.65;1.40;;;;;;;32.25;24.81;100856.84;4989248;28;20125;-69
2023/06/26 00:32:40;;;;;;;2.85;1.30;;;;;;;32.27;25.89;100854.94;4986474;28;20061;-69
2023/06/26 00:35:09;;;;;;;1.35;1.25;;;;;;;32.27;25.94;100860.28;4988501;28;20049;-69
2023/06/26 00:37:38;;;;;;;3.05;1.63;;;;;;;32.24;25.08;100855.13;4988251;28;20072;-69
2023/06/26 00:40:08;;;;;;;1.42;1.33;;;;;;;32.24;25.80;100860.47;4984842;28;20523;-69
2023/06/26 00:42:36;;;;;;;2.45;1.40;;;;;;;32.12;26.01;100858.53;4987652;28;20047;-70
2023/06/26 00:45:05;;;;;;;2.55;1.83;;;;;;;32.00;25.74;100853.91;4988766;28;20050;-70
2023/06/26 00:47:36;;;;;;;3.20;1.52;;;;;;;31.83;26.04;100849.50;4990499;28;20046;-70
2023/06/26 00:50:07;;;;;;;3.47;1.45;;;;;;;31.69;26.77;100850.31;4988081;28;20053;-69
2023/06/26 00:52:39;;;;;;;2.28;1.42;;;;;;;31.63;26.71;100859.53;4989357;28;20109;-69
2023/06/26 00:55:09;;;;;;;2.08;1.50;;;;;;;31.55;26.46;100851.09;4987833;28;20140;-69
2023/06/26 00:57:37;;;;;;;1.83;1.52;;;;;;;31.39;26.11;100845.72;4989632;28;20062;-68
2023/06/26 01:00:10;;;;;;;2.45;1.23;;;;;;;31.31;27.28;100847.94;4989893;28;20043;-68
2023/06/26 01:02:40;;;;;;;1.73;1.52;;;;;;;31.37;27.56;100852.09;4988855;28;20508;-68
2023/06/26 01:05:12;;;;;;;3.47;1.63;;;;;;;31.38;26.64;100851.13;4985610;28;20043;-69
2023/06/26 01:07:41;;;;;;;1.67;1.35;;;;;;;31.35;27.87;100848.66;4988407;28;20088;-68
2023/06/26 01:10:11;;;;;;;1.92;1.38;;;;;;;31.23;27.81;100839.50;4987973;28;20060;-67
2023/06/26 01:12:40;;;;;;;2.38;1.67;;;;;;;31.21;27.83;100846.75;4987313;28;20109;-68
2023/06/26 01:15:10;;;;;;;2.47;1.33;;;;;;;31.12;27.70;100841.91;4988853;28;20050;-69
2023/06/26 01:17:45;;;;;;;3.30;1.40;;;;;;;31.08;27.47;100842.09;4981644;28;20085;-68
2023/06/26 01:20:16;;;;;;;1.77;1.17;;;;;;;31.07;27.04;100843.03;4984106;28;20742;-70
2023/06/26 01:22:58;;;;;;;1.65;1.33;;;;;;;31.13;27.31;100838.28;4987612;28;20505;-67
2023/06/26 01:25:38;;;;;;;;;;;;;;;31.15;27.14;100847.94;4987199;28;20054;-69
2023/06/26 01:28:10;;;;;;;2.30;1.08;;;;;;;31.16;26.55;100843.47;4988714;28;20000;-66
2023/06/26 01:30:42;;;;;;;2.60;1.17;;;;;;;31.16;28.10;100848.81;4988518;28;20604;-68
2023/06/26 01:33:11;;;;;;;2.58;1.45;;;;;;;31.07;27.95;100842.16;4990268;28;21194;-69
2023/06/26 01:35:43;;;;;;;2.45;1.20;;;;;;;31.03;28.11;100845.94;4992996;28;20060;-68
2023/06/26 01:38:17;;;;;;;2.05;1.50;;;;;;;30.97;27.84;100840.94;4988014;28;20046;-68
2023/06/26 01:40:46;;;;;;;2.15;1.20;;;;;;;30.89;27.89;100850.22;4987369;28;20070;-68
2023/06/26 01:43:23;;;;;;;1.42;1.23;;;;;;;30.84;28.85;100851.41;4987495;28;20070;-68
2023/06/26 01:45:56;;;;;;;2.33;1.20;;;;;;;30.77;28.90;100853.53;4987447;28;20137;-68
2023/06/26 01:48:30;;;;;;;2.25;1.02;;;;;;;30.69;28.20;100856.63;4988017;28;20066;-68
2023/06/26 01:51:01;;;;;;;1.55;1.13;;;;;;;30.62;28.03;100857.88;4984807;28;20448;-66
2023/06/26 01:53:38;;;;;;;1.23;1.10;;;;;;;30.55;28.58;100859.13;4984190;28;20125;-68
2023/06/26 01:56:12;;;;;;;1.25;0.90;;;;;;;30.47;28.53;100856.88;4984942;28;20063;-67
2023/06/26 01:58:45;;;;;;;2.15;1.20;;;;;;;30.36;29.33;100853.06;4989814;28;20491;-69
2023/06/26 02:01:14;;;;;;;1.33;1.20;;;;;;;30.25;29.88;100853.56;4986878;28;20054;-68
2023/06/26 02:03:43;;;;;;;1.90;1.20;;;;;;;30.20;29.64;100858.28;4985554;28;20382;-69
2023/06/26 02:06:12;;;;;;;1.98;1.25;;;;;;;30.17;29.03;100853.97;4987899;28;20050;-68
2023/06/26 02:08:40;;;;;;;1.77;1.08;;;;;;;30.10;29.79;100847.22;4987145;28;20057;-68
2023/06/26 02:11:09;;;;;;;1.30;1.13;;;;;;;30.08;29.59;100862.44;4990048;28;20050;-68
2023/06/26 02:13:38;;;;;;;1.92;1.33;;;;;;;30.02;29.66;100865.41;4987605;28;20640;-66
2023/06/26 02:16:08;;;;;;;1.73;1.27;;;;;;;29.92;30.33;100858.81;4990215;28;20054;-67
2023/06/26 02:18:37;;;;;;;2.35;1.20;;;;;;;29.80;29.93;100869.16;4993731;28;20129;-68
2023/06/26 02:21:09;;;;;;;1.50;1.25;;;;;;;29.68;29.39;100861.72;4986037;28;20057;-67
2023/06/26 02:23:37;;;;;;;2.03;1.40;;;;;;;29.60;29.98;100869.22;4988757;28;20065;-66
2023/06/26 02:26:06;;;;;;;1.52;1.20;;;;;;;29.53;30.16;100873.97;4990165;28;20046;-68
2023/06/26 02:28:35;;;;;;;1.75;0.90;;;;;;;29.39;30.20;100877.28;4993105;28;20058;-67
2023/06/26 02:31:04;;;;;;;1.67;1.17;;;;;;;29.29;30.86;100878.66;4986106;28;20066;-67
2023/06/26 02:33:34;;;;;;;3.17;1.20;;;;;;;29.17;30.56;100866.75;4988795;28;20223;-69
2023/06/26 02:36:03;;;;;;;2.00;1.20;;;;;;;28.99;29.95;100883.56;4985511;28;20046;-67
2023/06/26 02:38:32;;;;;;;1.52;1.02;;;;;;;28.89;31.14;100887.59;4987665;28;20053;-66
2023/06/26 02:41:00;;;;;;;3.65;1.30;;;;;;;28.80;31.59;100880.88;4988475;28;20169;-69
2023/06/26 02:43:30;;;;;;;1.48;1.00;;;;;;;28.74;31.29;100883.78;4986396;28;20042;-68
2023/06/26 02:45:58;;;;;;;2.70;1.20;;;;;;;28.57;31.14;100888.06;4988136;28;20499;-68
2023/06/26 02:48:27;;;;;;;1.42;1.10;;;;;;;28.43;31.13;100885.13;4981945;28;20420;-69
2023/06/26 02:50:58;;;;;;;1.33;0.90;;;;;;;28.30;31.42;100886.56;4985521;28;20054;-66
2023/06/26 02:53:26;;;;;;;1.63;1.10;;;;;;;28.12;32.18;100889.03;4984953;28;20433;-68
2023/06/26 02:55:55;;;;;;;2.30;1.10;;;;;;;28.02;32.34;100898.34;4991333;28;20418;-68
2023/06/26 02:58:24;;;;;;;1.83;0.98;;;;;;;27.95;31.94;100894.22;4980277;28;20069;-68
2023/06/26 03:00:53;;;;;;;2.35;1.23;;;;;;;27.88;32.29;100888.28;4986740;28;20046;-65
2023/06/26 03:03:22;;;;;;;2.25;1.55;;;;;;;27.78;32.29;100885.06;4988290;28;20077;-68
2023/06/26 03:05:51;;;;;;;1.60;1.38;;;;;;;27.67;32.58;100889.97;4992891;28;20078;-66
2023/06/26 03:08:21;;;;;;;2.30;1.20;;;;;;;27.58;32.60;100891.19;4990468;28;20485;-68
2023/06/26 03:10:49;;;;;;;2.92;1.15;;;;;;;27.54;32.96;100891.38;4990467;28;20059;-67
2023/06/26 03:13:18;;;;;;;3.72;1.40;;;;;;;27.49;32.72;100891.56;4992217;28;20065;-68
2023/06/26 03:15:47;;;;;;;1.38;1.20;;;;;;;27.40;32.12;100893.69;4995708;28;20058;-67
2023/06/26 03:18:16;;;;;;;3.28;1.45;;;;;;;27.28;32.65;100897.69;4995192;28;20053;-67
2023/06/26 03:20:45;;;;;;;4.53;1.30;;;;;;;27.15;31.57;100898.13;4990368;28;20042;-66
2023/06/26 03:23:14;;;;;;;2.55;1.50;;;;;;;27.07;31.79;100894.00;4988916;28;20065;-67
2023/06/26 03:25:44;;;;;;;2.05;1.50;;;;;;;26.99;31.57;100899.59;4989841;28;20801;-67
2023/06/26 03:28:13;;;;;;;1.40;1.23;;;;;;;26.90;31.78;100900.81;4985408;28;20057;-68
2023/06/26 03:30:41;;;;;;;6.75;1.60;;;;;;;26.80;32.21;100906.50;4987751;28;20053;-68
2023/06/26 03:33:11;;;;;;;2.20;1.48;;;;;;;26.71;31.81;100905.91;4993887;28;20026;-68
2023/06/26 03:35:39;;;;;;;2.65;1.67;;;;;;;26.61;32.72;100908.94;4999836;28;20100;-67
2023/06/26 03:38:08;;;;;;;2.35;1.40;;;;;;;26.50;32.31;100909.25;4993500;28;20070;-66
2023/06/26 03:40:37;;;;;;;1.80;1.33;;;;;;;26.37;31.47;100911.47;4991500;28;20606;-66
2023/06/26 03:43:16;;;;;;;3.20;1.52;;;;;;;26.22;31.75;100917.28;4993644;28;20053;-68
2023/06/26 03:45:44;;;;;;;3.28;1.48;;;;;;;26.10;31.84;100916.78;4990919;28;20102;-68
2023/06/26 03:48:13;;;;;;;4.50;1.48;;;;;;;26.01;32.06;100918.84;4997342;28;20046;-68
2023/06/26 03:50:42;;;;;;;5.25;1.65;;;;;;;25.90;31.52;100924.50;4988007;28;20101;-67
2023/06/26 03:53:11;;;;;;;2.92;1.40;;;;;;;25.75;30.77;100930.22;4995348;28;20054;-67
2023/06/26 03:55:39;;;;;;;1.88;1.50;;;;;;;25.65;30.16;100925.22;4984854;28;20050;-67
2023/06/26 03:58:08;;;;;;;2.05;1.55;;;;;;;25.56;28.86;100925.50;4994871;28;20492;-68
2023/06/26 04:00:38;;;;;;;2.50;1.30;;;;;;;25.44;29.51;100925.88;4992082;28;20053;-67
2023/06/26 04:03:07;;;;;;;4.53;1.55;;;;;;;25.34;29.71;100927.94;4989275;28;20057;-68
2023/06/26 04:05:35;;;;;;;6.22;1.55;;;;;;;25.25;29.12;100925.53;4993677;28;20057;-67
2023/06/26 04:08:04;;;;;;;2.20;1.52;;;;;;;25.16;28.75;100929.28;4993915;28;20578;-66
2023/06/26 04:10:39;;;;;;;4.43;1.40;;;;;;;25.05;28.84;100928.72;4993372;28;20225;-67
2023/06/26 04:13:10;;;;;;;1.65;1.40;;;;;;;24.94;27.77;100928.13;4988218;28;20051;-69
2023/06/26 04:15:41;;;;;;;3.10;1.50;;;;;;;24.87;28.49;100930.94;4991329;28;20054;-67
2023/06/26 04:18:10;;;;;;;3.07;1.50;;;;;;;24.82;28.58;100935.50;4982163;28;20051;-67
2023/06/26 04:20:44;;;;;;;2.05;1.58;;;;;;;24.78;29.03;100944.41;4989938;28;20046;-69
2023/06/26 04:23:13;;;;;;;2.28;1.33;;;;;;;24.75;29.56;100947.16;4991879;28;20047;-68
2023/06/26 04:25:44;;;;;;;3.70;2.22;;;;;;;24.61;29.48;100933.44;4988573;28;20092;-67
2023/06/26 04:28:13;;;;;;;2.45;1.48;;;;;;;24.67;29.58;100951.81;4983520;28;20074;-67
2023/06/26 04:30:43;;;;;;;2.67;1.73;;;;;;;24.65;29.08;100958.91;4987445;28;20050;-66
2023/06/26 04:33:13;;;;;;;7.25;1.60;;;;;;;24.57;28.90;100974.09;4988773;28;20397;-66
2023/06/26 04:35:44;;;;;;;2.25;1.60;;;;;;;24.50;29.04;100977.81;4987078;28;20085;-67
2023/06/26 04:38:13;;;;;;;4.43;1.75;;;;;;;24.45;29.99;100984.03;4984933;28;20066;-67
2023/06/26 04:40:42;;;;;;;2.25;1.30;;;;;;;24.42;31.63;100981.47;4984952;28;20126;-68
2023/06/26 04:43:11;;;;;;;1.90;1.55;;;;;;;24.38;30.32;100990.38;4984499;28;21052;-67
2023/06/26 04:45:39;;;;;;;2.50;1.50;;;;;;;24.33;29.13;100988.78;4988059;28;20046;-68
2023/06/26 04:48:10;;;;;;;1.92;1.52;;;;;;;24.29;29.84;100997.66;4989984;28;20081;-68
2023/06/26 04:50:53;;;;;;;6.20;1.80;;;;;;;24.24;28.86;100997.78;4988338;28;20060;-68
2023/06/26 04:53:28;;;;;;;1.73;1.52;;;;;;;24.09;28.59;101001.63;4988622;28;20153;-68
2023/06/26 04:55:57;;;;;;;1.90;1.63;;;;;;;23.90;28.85;101006.47;4994111;28;20042;-67
2023/06/26 04:58:26;;;;;;;1.95;1.50;;;;;;;23.85;29.05;101007.47;4989146;28;20054;-67
2023/06/26 05:00:54;;;;;;;2.08;1.80;;;;;;;23.81;29.52;101007.53;4991743;28;20054;-67
2023/06/26 05:03:25;;;;;;;2.35;1.90;;;;;;;23.79;28.77;101016.38;4993674;28;20053;-67
2023/06/26 05:05:53;;;;;;;2.03;1.58;;;;;;;23.72;29.34;101014.75;4991252;28;20054;-68
2023/06/26 05:08:26;;;;;;;2.72;1.80;;;;;;;23.66;28.83;101010.44;4988317;28;20552;-68
2023/06/26 05:10:57;;;;;;;2.72;1.70;;;;;;;23.59;28.73;101017.66;4987417;28;20057;-67
2023/06/26 05:13:29;;;;;;;1.58;1.38;;;;;;;23.51;28.97;101016.94;4987925;28;20056;-68
2023/06/26 05:15:57;;;;;;;2.20;1.67;;;;;;;23.45;29.20;101024.97;4990587;28;20069;-68
2023/06/26 05:18:28;;;;;;;2.28;1.50;;;;;;;23.36;29.37;101022.50;4989338;28;20054;-67
2023/06/26 05:20:57;;;;;;;1.85;1.50;;;;;;;23.29;30.55;101027.03;4986958;28;20112;-68
2023/06/26 05:23:34;;;;;;;3.08;1.80;;;;;;;23.25;30.51;101025.38;4996217;28;20199;-69
2023/06/26 05:26:03;;;;;;;1.98;1.70;;;;;;;23.24;29.98;101022.75;4991759;28;20042;-67
2023/06/26 05:28:32;;;;;;;2.60;1.95;;;;;;;23.20;31.27;101022.81;4991740;28;20112;-67
2023/06/26 05:31:02;;;;;;;2.53;1.65;;;;;;;23.15;31.66;101021.13;4986357;28;20050;-67
2023/06/26 05:33:36;;;;;;;2.00;1.80;;;;;;;23.10;31.70;101020.34;4988758;28;20072;-67
2023/06/26 05:36:07;;;;;;;3.45;1.73;;;;;;;23.01;31.79;101034.59;4985827;28;20053;-67
2023/06/26 05:38:36;;;;;;;2.72;1.80;;;;;;;22.93;31.70;101037.34;4985245;28;20050;-68
2023/06/26 05:41:05;;;;;;;3.08;1.80;;;;;;;22.84;31.89;101037.50;4988828;28;20052;-67
2023/06/26 05:43:36;;;;;;;4.38;2.00;;;;;;;22.77;31.76;101042.00;4986995;28;20053;-67
2023/06/26 05:46:05;;;;;;;2.25;1.65;;;;;;;22.71;32.32;101044.72;4988274;28;20104;-67
2023/06/26 05:48:35;;;;;;;2.72;1.80;;;;;;;22.62;33.25;101039.59;4987340;28;20050;-67
2023/06/26 05:51:05;;;;;;;2.10;1.60;;;;;;;22.53;34.08;101042.38;4992438;28;20061;-68
2023/06/26 05:53:34;;;;;;;2.25;1.80;;;;;;;22.43;34.34;101043.44;4987674;28;20106;-68
2023/06/26 05:56:03;;;;;;;4.63;1.75;;;;;;;22.33;34.44;101047.94;4986937;28;20085;-68
2023/06/26 05:58:32;;;;;;;2.03;1.25;;;;;;;22.23;34.13;101044.56;4986204;28;20057;-68
2023/06/26 06:01:01;;;;;;;2.20;1.65;;;;;;;22.16;34.32;101041.13;4990388;28;20069;-68
2023/06/26 06:03:29;;;;;;;2.35;1.65;;;;;;;22.11;34.96;101047.34;4986866;28;20078;-67
2023/06/26 06:06:03;;;;;;;1.90;1.45;;;;;;;22.03;35.18;101049.22;4991347;28;20057;-67
2023/06/26 06:08:31;;;;;;;3.20;1.60;;;;;;;21.94;34.78;101048.44;4983657;28;20507;-68
2023/06/26 06:11:01;;;;;;;1.83;1.40;;;;;;;21.87;35.08;101044.13;4987688;28;20054;-68
2023/06/26 06:13:30;;;;;;;2.17;1.25;;;;;;;21.81;35.67;101041.59;4989603;28;20531;-68
2023/06/26 06:15:59;;;;;;;2.17;1.65;;;;;;;21.75;35.59;101033.75;4986243;28;20051;-69
2023/06/26 06:18:28;;;;;;;1.80;1.50;;;;;;;21.72;36.50;101044.34;4987232;28;20050;-69
2023/06/26 06:20:57;;;;;;;1.80;1.42;;;;;;;21.69;36.68;101044.34;4987711;28;20054;-67
2023/06/26 06:23:27;;;;;;;1.85;1.50;;;;;;;21.66;36.58;101050.53;4990047;28;20655;-68
2023/06/26 06:25:55;;;;;;;1.92;1.15;;;;;;;21.62;36.85;101047.94;4985050;28;20055;-67
2023/06/26 06:28:26;;;;;;;1.70;1.40;;;;;;;21.56;37.21;101037.50;4985491;28;20072;-67
2023/06/26 06:30:55;;;;;;;5.30;1.30;;;;;;;21.59;37.54;101042.72;4989025;28;20044;-69
2023/06/26 06:33:23;;;;;;;1.52;1.30;;;;;;;21.58;38.80;101054.13;4986155;28;20058;-68
2023/06/26 06:35:52;;;;;;;1.73;1.30;;;;;;;21.48;38.86;101050.75;4985823;28;20042;-68
2023/06/26 06:38:21;;;;;;;1.98;1.17;;;;;;;21.43;38.36;101047.28;4990849;28;20058;-67
2023/06/26 06:40:51;;;;;;;2.53;1.20;;;;;;;21.39;37.86;101056.06;4991492;28;20047;-68
2023/06/26 06:43:20;;;;;;;1.75;1.25;;;;;;;21.36;38.79;101051.72;4994458;28;20544;-69
2023/06/26 06:45:48;;;;;;;2.38;1.40;;;;;;;21.32;38.14;101063.16;4994799;28;20506;-67
2023/06/26 06:48:17;;;;;;;4.55;1.33;;;;;;;21.25;38.70;101064.09;4991991;28;20050;-68
2023/06/26 06:50:45;;;;;;;2.83;1.15;;;;;;;21.16;38.34;101064.19;4990478;28;20567;-67
2023/06/26 06:53:14;;;;;;;1.90;1.23;;;;;;;21.09;38.90;101069.50;4988744;28;20050;-67
2023/06/26 06:55:43;;;;;;;2.03;1.40;;;;;;;21.06;38.79;101064.28;4998978;28;20059;-68
2023/06/26 06:58:13;;;;;;;1.90;1.30;;;;;;;21.00;39.03;101066.94;4990722;28;20045;-67
2023/06/26 07:00:41;;;;;;;3.40;1.70;;;;;;;20.93;39.78;101067.91;4989278;28;20050;-68
2023/06/26 07:03:10;;;;;;;2.88;1.10;;;;;;;20.80;40.56;101066.25;4992169;28;20201;-67
2023/06/26 07:05:39;;;;;;;2.22;1.10;;;;;;;20.77;40.98;101077.66;4995960;28;20492;-67
2023/06/26 07:08:07;;;;;;;1.67;1.35;;;;;;;20.73;40.47;101075.06;4989440;28;20061;-68
2023/06/26 07:10:36;;;;;;;1.60;1.00;;;;;;;20.64;40.45;101066.38;4989180;28;20062;-66
2023/06/26 07:13:04;;;;;;;1.50;1.20;;;;;;;20.58;40.82;101066.41;4989475;28;20050;-68
2023/06/26 07:15:35;;;;;;;1.90;1.10;;;;;;;20.53;41.18;101073.44;4991748;28;20050;-67
2023/06/26 07:18:04;;;;;;;2.17;1.30;;;;;;;20.49;41.25;101071.69;4989406;28;20665;-67
2023/06/26 07:20:32;;;;;;;1.90;1.45;;;;;;;20.42;41.62;101070.00;4991266;28;20038;-68
2023/06/26 07:23:01;;;;;;;1.98;1.38;;;;;;;20.35;44.15;101079.66;4989550;28;20049;-68
2023/06/26 07:25:29;;;;;;;1.80;1.10;;;;;;;20.21;46.16;101081.50;4991094;28;21160;-67
2023/06/26 07:27:58;;;;;;;3.85;1.33;;;;;;;20.04;48.16;101068.44;4987388;28;20042;-68
2023/06/26 07:30:27;;;;;;;2.30;1.42;;;;;;;19.94;48.63;101066.72;4990925;28;20054;-66
2023/06/26 07:32:57;;;;;;;1.48;1.00;;;;;;;19.86;48.80;101075.53;4982207;28;20058;-67
2023/06/26 07:35:27;;;;;;;2.53;1.17;;;;;;;19.82;49.15;101086.91;4988438;28;20047;-67
2023/06/26 07:37:56;;;;;;;2.22;1.08;;;;;;;19.73;51.44;101080.81;4987175;28;20061;-67
2023/06/26 07:40:24;;;;;;;2.15;1.00;;;;;;;19.52;51.39;101084.34;4987333;28;20057;-68
2023/06/26 07:42:53;;;;;;;3.28;1.30;;;;;;;19.40;52.85;101086.13;4994160;28;20385;-68
2023/06/26 07:45:22;;;;;;;1.63;0.98;;;;;;;19.29;53.88;101080.00;4990416;28;20055;-67
2023/06/26 07:47:51;;;;;;;1.88;1.40;;;;;;;19.13;55.05;101075.66;4988110;28;20053;-68
2023/06/26 07:50:22;;;;;;;0.88;0.70;;;;;;;19.02;55.38;101081.75;4985315;28;20050;-68
2023/06/26 07:52:52;;;;;;;1.80;1.37;;;;;;;18.97;56.18;101083.50;4990319;28;21018;-66
2023/06/26 07:55:21;;;;;;;1.20;0.90;;;;;;;18.89;56.27;101082.63;4985941;28;20371;-67
2023/06/26 07:57:52;;;;;;;0.93;0.80;;;;;;;18.78;56.73;101090.50;4991176;28;20441;-67
2023/06/26 08:00:20;;;;;;;1.73;0.93;;;;;;;18.67;57.89;101088.69;4990786;28;20054;-68
2023/06/26 08:02:49;;;;;;;1.15;0.70;;;;;;;18.55;58.52;101087.78;4988603;28;20413;-67
2023/06/26 08:05:17;;;;;;;3.70;0.98;;;;;;;18.48;58.09;101086.03;4984204;28;20128;-66
2023/06/26 08:07:48;;;;;;;1.75;0.95;;;;;;;18.38;59.31;101090.38;4989596;28;20046;-67
2023/06/26 08:10:16;;;;;;;2.88;0.93;;;;;;;18.34;58.43;101087.75;4992537;28;20429;-66
2023/06/26 08:12:45;;;;;;;1.23;0.75;;;;;;;18.29;60.58;101085.13;4985893;28;20062;-67
2023/06/26 08:15:16;;;;;;;0.63;0.63;;;;;;;18.15;60.33;101086.81;4989163;28;20049;-67
2023/06/26 08:17:45;;;;;;;2.88;1.60;;;;;;;18.11;60.14;101079.81;4989929;28;20050;-68
2023/06/26 08:20:14;;;;;;;5.68;1.10;;;;;;;18.06;61.74;101084.16;4991072;28;20053;-67
2023/06/26 08:22:43;;;;;;;2.65;0.98;;;;;;;17.98;61.71;101090.25;4988051;28;20047;-68
2023/06/26 08:25:13;;;;;;;3.78;1.02;;;;;;;17.95;62.30;101094.59;4990081;28;20046;-67
2023/06/26 08:27:41;;;;;;;4.60;1.20;;;;;;;17.88;61.65;101092.81;4987713;28;20060;-66
2023/06/26 08:30:11;;;;;;;1.90;1.02;;;;;;;17.84;61.17;101088.41;4986020;28;20046;-66
2023/06/26 08:32:39;;;;;;;2.42;1.10;;;;;;;17.83;61.50;101089.31;4988763;28;20104;-67
2023/06/26 08:35:10;;;;;;;1.70;1.20;;;;;;;17.80;61.51;101091.00;4985939;28;20795;-68
2023/06/26 08:37:40;;;;;;;1.80;0.80;;;;;;;17.67;62.46;101089.19;4989020;28;20050;-67
2023/06/26 08:40:10;;;;;;;1.65;0.80;;;;;;;17.61;62.68;101077.78;4991757;28;20050;-69
2023/06/26 08:42:41;;;;;;;2.10;0.77;;;;;;;17.56;60.91;101085.63;4982129;28;20058;-67
2023/06/26 08:45:10;;;;;;;5.28;1.00;;;;;;;17.53;61.78;101085.63;4985405;28;20058;-67
2023/06/26 08:47:40;;;;;;;2.65;0.90;;;;;;;17.47;62.09;101096.03;4988641;28;20082;-67
2023/06/26 08:50:12;;;;;;;2.15;1.20;;;;;;;17.46;61.92;101100.38;4986493;28;20050;-67
2023/06/26 08:52:47;;;;;;;2.33;1.10;;;;;;;17.41;61.50;101096.88;4989195;28;20058;-67
2023/06/26 08:55:18;;;;;;;1.25;0.70;;;;;;;17.40;60.25;101104.69;4988653;28;20049;-66
2023/06/26 08:57:48;;;;;;;4.45;1.20;;;;;;;17.36;61.07;101094.22;4987692;28;20496;-68
2023/06/26 09:00:18;;;;;;;2.17;1.30;;;;;;;17.37;60.95;101100.34;4984468;28;20049;-66
2023/06/26 09:02:47;;;;;;;1.17;0.90;;;;;;;17.35;60.44;101095.06;4984785;28;20043;-67
2023/06/26 09:05:16;;;;;;;0.90;0.70;;;;;;;17.34;61.33;101105.50;4987640;28;20046;-68
2023/06/26 09:07:45;;;;;;;3.95;1.10;;;;;;;17.30;60.19;101104.63;4987759;28;20054;-67
2023/06/26 09:10:14;;;;;;;1.70;0.50;;;;;;;17.29;59.70;101105.47;4989637;28;20057;-67
2023/06/26 09:12:42;;;;;;;2.00;0.95;;;;;;;17.27;60.44;101102.00;4988192;28;20050;-68
2023/06/26 09:15:16;;;;;;;1.88;1.00;;;;;;;17.28;61.38;101110.72;4989640;28;20133;-67
2023/06/26 09:17:45;;;;;;;2.47;0.88;;;;;;;17.26;61.39;101112.44;4989142;28;20054;-67
2023/06/26 09:20:14;;;;;;;0.80;0.63;;;;;;;17.26;60.94;101115.94;4987514;28;20098;-67
2023/06/26 09:22:44;;;;;;;2.10;1.00;;;;;;;17.23;62.55;101102.84;4987648;28;20061;-67
2023/06/26 09:25:13;;;;;;;2.83;1.00;;;;;;;17.22;63.03;101108.06;4985694;28;20448;-67
2023/06/26 09:27:44;;;;;;;1.23;0.82;;;;;;;17.18;63.97;101109.78;4988882;28;20061;-67
2023/06/26 09:30:19;;;;;;;1.02;0.63;;;;;;;17.12;63.76;101117.56;4990037;28;20056;-66
2023/06/26 09:32:50;;;;;;;1.75;0.82;;;;;;;17.06;63.91;101120.13;4986426;28;20064;-66
2023/06/26 09:35:19;;;;;;;0.70;0.65;;;;;;;17.03;65.10;101115.75;4988793;28;20074;-66
2023/06/26 09:37:47;;;;;;;2.63;0.70;;;;;;;16.96;64.85;101109.59;4982457;28;20062;-67
2023/06/26 09:40:16;;;;;;;0.93;0.80;;;;;;;16.94;64.24;101121.75;4984778;28;20050;-67
2023/06/26 09:42:45;;;;;;;1.63;0.93;;;;;;;16.91;64.94;101115.66;4985287;28;20050;-67
2023/06/26 09:45:22;;;;;;;1.77;0.50;;;;;;;16.85;64.47;101121.69;4986036;28;20058;-68
2023/06/26 09:47:50;;;;;;;3.13;0.90;;;;;;;16.78;66.51;101125.06;4987406;28;20050;-67
2023/06/26 09:50:27;;;;;;;2.90;1.00;;;;;;;16.69;66.87;101120.63;4988549;28;20058;-68
2023/06/26 09:52:55;;;;;;;2.85;0.90;;;;;;;16.63;66.70;101114.44;4984904;28;20105;-67
2023/06/26 09:55:24;;;;;;;2.45;1.27;;;;;;;16.56;67.10;101116.16;4981041;28;20046;-67
2023/06/26 09:57:53;;;;;;;1.05;0.80;;;;;;;16.52;68.17;101119.56;4987340;28;20057;-67
2023/06/26 10:00:26;;;;;;;0.40;0.40;;;;;;;16.49;66.66;101117.81;4987789;28;20715;-67
2023/06/26 10:02:55;;;;;;;2.42;0.50;;;;;;;16.47;67.44;101116.00;4984897;28;20050;-67
2023/06/26 10:05:24;;;;;;;1.48;0.70;;;;;;;16.43;68.92;101112.50;4986796;28;20137;-66
2023/06/26 10:07:54;;;;;;;2.72;0.80;;;;;;;16.37;67.26;101115.03;4986617;28;20062;-67
2023/06/26 10:10:24;;;;;;;1.17;0.70;;;;;;;16.39;67.24;101118.56;4990170;28;20851;-66
2023/06/26 10:12:54;;;;;;;0.77;0.70;;;;;;;16.41;67.23;101114.22;4986515;28;20046;-68
2023/06/26 10:15:26;;;;;;;2.22;0.70;;;;;;;16.39;65.28;101122.91;4988958;28;20050;-66
2023/06/26 10:17:58;;;;;;;1.70;0.90;;;;;;;16.37;65.56;101122.88;4987521;28;20582;-67
2023/06/26 10:20:28;;;;;;;1.00;0.70;;;;;;;16.39;64.98;101126.38;4984306;28;20054;-66
2023/06/26 10:22:59;;;;;;;0.45;0.40;;;;;;;16.40;64.83;101130.78;4987595;28;20338;-67
2023/06/26 10:25:29;;;;;;;1.13;0.70;;;;;;;16.38;64.91;101124.66;4989542;28;20074;-67
2023/06/26 10:28:01;;;;;;;2.15;0.70;;;;;;;16.38;64.63;101129.88;4986321;28;20050;-67
2023/06/26 10:30:36;;;;;;;0.75;0.40;;;;;;;16.39;64.68;101122.91;4986284;28;20054;-66
2023/06/26 10:33:05;;;;;;;0.93;0.82;;;;;;;16.38;65.12;101129.88;4988137;28;20051;-66
2023/06/26 10:35:34;;;;;;;3.20;0.80;;;;;;;16.39;64.86;101129.00;4985286;28;20136;-67
2023/06/26 10:38:04;;;;;;;1.52;0.70;;;;;;;16.37;64.70;101128.09;4983570;28;20051;-66
2023/06/26 10:40:44;;;;;;;1.27;0.60;;;;;;;16.32;65.41;101130.66;4984405;28;20050;-67
2023/06/26 10:43:15;;;;;;;1.02;0.57;;;;;;;16.30;64.92;101127.16;4986983;28;20046;-67
2023/06/26 10:45:52;;;;;;;2.15;0.73;;;;;;;16.28;63.94;101128.00;4986356;28;20054;-66
2023/06/26 10:48:20;;;;;;;1.13;0.50;;;;;;;16.27;63.11;101123.66;4985858;28;20125;-65
2023/06/26 10:50:50;;;;;;;1.38;0.50;;;;;;;16.24;62.94;101127.09;4985803;28;20555;-66
2023/06/26 10:53:27;;;;;;;0.80;0.60;;;;;;;16.20;62.75;101119.22;4989044;28;20065;-66
2023/06/26 10:55:58;;;;;;;2.03;1.08;;;;;;;16.23;62.73;101129.69;4986213;28;20058;-67
2023/06/26 10:58:47;;;;;;;0.60;0.45;;;;;;;16.23;62.39;101129.69;4988478;28;20050;-67
2023/06/26 11:01:24;;;;;;;2.70;0.75;;;;;;;16.22;62.95;101136.63;4986154;28;20164;-67
2023/06/26 11:04:05;;;;;;;2.40;0.98;;;;;;;16.17;68.22;101134.81;4983498;28;20058;-67
2023/06/26 11:06:35;;;;;;;1.48;0.70;;;;;;;16.03;69.35;101143.34;4986928;28;20065;-68
2023/06/26 11:09:08;;;;;;;1.17;1.08;;;;;;;15.97;70.31;101135.44;4986168;28;20679;-67
2023/06/26 11:12:04;;;;;;;1.25;0.85;;;;;;;15.89;70.00;101134.44;4987735;28;20054;-67
2023/06/26 11:14:34;;;;;;;1.20;0.73;;;;;;;15.87;69.79;101141.38;4985534;28;20146;-66
2023/06/26 11:17:10;;;;;;;1.25;0.80;;;;;;;15.86;70.40;101137.03;4987533;28;20074;-67
2023/06/26 11:19:44;;;;;;;1.52;0.80;;;;;;;15.82;69.96;101143.06;4990242;28;20050;-66
2023/06/26 11:22:16;;;;;;;1.98;0.77;;;;;;;15.80;69.95;101143.03;4989099;28;20045;-66
2023/06/26 11:24:47;;;;;;;4.32;0.65;;;;;;;15.80;69.79;101139.53;4989310;28;20054;-66
2023/06/26 11:27:16;;;;;;;1.13;0.60;;;;;;;15.75;69.40;101139.47;4989114;28;20165;-66
2023/06/26 11:29:50;;;;;;;2.00;1.02;;;;;;;15.68;70.75;101145.44;4986044;28;20047;-66
2023/06/26 11:32:20;;;;;;;1.90;0.93;;;;;;;15.58;70.86;101151.38;4991334;28;20085;-67
2023/06/26 11:34:50;;;;;;;2.05;0.75;;;;;;;15.48;71.21;101152.94;4987979;28;20037;-67
2023/06/26 11:37:19;;;;;;;3.72;1.27;;;;;;;15.43;71.46;101149.41;4992797;28;20050;-66